Time;durP1;ratioP1;P1;durP2;ratioP2;P2;SDS_P1;SDS_P2;PMS_P1;PMS_P2;Temp;Humidity;BMP_temperature;BMP_pressure;BME280_temperature;BME280_humidity;BME280_pressure;Samples;Min_cycle;Max_cycle;Signal;HPM_P1;HPM_P2
2024/01/11 00:02:08;;;;;;;45.45;18.05;;;;;;;-5.08;72.72;94798.19;5086582;28;20271;-74
2024/01/11 00:04:34;;;;;;;41.17;18.75;;;;;;;-5.10;72.58;94800.19;5086488;28;20311;-74
2024/01/11 00:06:59;;;;;;;49.65;18.73;;;;;;;-5.12;72.72;94789.97;5086602;28;20024;-74
2024/01/11 00:09:25;;;;;;;56.58;19.40;;;;;;;-5.13;72.05;94788.38;5086511;28;20013;-74
2024/01/11 00:11:50;;;;;;;56.83;19.10;;;;;;;-5.15;72.20;94784.34;5086066;28;20040;-74
2024/01/11 00:14:15;;;;;;;46.35;17.70;;;;;;;-5.16;72.25;94782.75;5086222;28;20100;-73
2024/01/11 00:16:41;;;;;;;54.85;18.10;;;;;;;-5.15;72.26;94774.78;5086575;28;20016;-74
2024/01/11 00:19:07;;;;;;;46.90;17.25;;;;;;;-5.14;72.38;94778.97;5086541;28;20087;-74
2024/01/11 00:21:32;;;;;;;49.58;15.85;;;;;;;-5.17;72.47;94788.94;5086417;28;20021;-74
2024/01/11 00:23:58;;;;;;;50.58;18.13;;;;;;;-5.18;72.25;94776.94;5086358;28;20024;-74
2024/01/11 00:26:23;;;;;;;49.20;17.75;;;;;;;-5.21;72.62;94775.53;5086270;28;20062;-74
2024/01/11 00:28:49;;;;;;;49.22;17.83;;;;;;;-5.22;72.71;94786.13;5086131;28;20085;-74
2024/01/11 00:31:14;;;;;;;65.60;17.63;;;;;;;-5.29;72.63;94773.91;5086199;28;20051;-74
2024/01/11 00:33:40;;;;;;;55.70;18.60;;;;;;;-5.29;72.93;94783.47;5086279;28;20024;-74
2024/01/11 00:36:05;;;;;;;50.28;18.60;;;;;;;-5.28;73.08;94779.88;5086136;28;20059;-74
2024/01/11 00:38:30;;;;;;;46.47;16.50;;;;;;;-5.29;73.15;94779.09;5086328;28;20192;-74
2024/01/11 00:40:56;;;;;;;57.40;19.92;;;;;;;-5.28;73.11;94777.28;5086126;28;20036;-74
2024/01/11 00:43:21;;;;;;;63.53;20.23;;;;;;;-5.30;73.24;94772.28;5085524;28;20028;-74
2024/01/11 00:45:47;;;;;;;63.65;20.50;;;;;;;-5.33;73.29;94766.66;5086116;28;20075;-74
2024/01/11 00:48:12;;;;;;;57.78;20.75;;;;;;;-5.29;72.95;94767.88;5086176;28;20024;-74
2024/01/11 00:50:38;;;;;;;59.97;19.75;;;;;;;-5.38;73.29;94769.03;5085994;28;20432;-74
2024/01/11 00:53:03;;;;;;;59.30;22.15;;;;;;;-5.40;73.25;94765.84;5084082;28;20064;-74
2024/01/11 00:55:29;;;;;;;52.90;18.65;;;;;;;-5.45;73.13;94762.00;5085928;28;20051;-74
2024/01/11 00:57:55;;;;;;;56.88;19.13;;;;;;;-5.46;73.31;94762.19;5086087;28;20084;-74
2024/01/11 01:00:20;;;;;;;51.45;19.05;;;;;;;-5.40;73.29;94755.44;5085840;28;20027;-74
2024/01/11 01:02:45;;;;;;;65.85;20.80;;;;;;;-5.41;73.14;94756.41;5085837;28;20028;-74
2024/01/11 01:05:12;;;;;;;48.38;19.10;;;;;;;-5.47;73.16;94751.00;5085601;28;20030;-74
2024/01/11 01:07:37;;;;;;;55.83;19.35;;;;;;;-5.50;73.51;94745.38;5085476;28;20026;-74
2024/01/11 01:10:03;;;;;;;50.78;19.67;;;;;;;-5.52;73.18;94749.97;5085606;28;20028;-74
2024/01/11 01:12:28;;;;;;;46.03;19.40;;;;;;;-5.52;73.56;94745.56;5085271;28;20060;-74
2024/01/11 01:14:55;;;;;;;48.10;17.65;;;;;;;-5.49;73.49;94758.19;5085657;28;20021;-74
2024/01/11 01:17:21;;;;;;;57.28;17.58;;;;;;;-5.48;73.37;94754.59;5085632;28;20253;-73
2024/01/11 01:19:47;;;;;;;38.83;13.20;;;;;;;-5.44;73.21;94755.00;5085084;28;20020;-74
2024/01/11 01:22:12;;;;;;;36.75;14.18;;;;;;;-5.46;73.38;94752.59;5085596;28;20036;-74
2024/01/11 01:24:38;;;;;;;39.45;14.07;;;;;;;-5.47;73.25;94756.19;5085224;28;20090;-74
2024/01/11 01:27:03;;;;;;;36.83;13.23;;;;;;;-5.48;73.49;94753.78;5085009;28;20051;-74
2024/01/11 01:29:29;;;;;;;30.83;13.30;;;;;;;-5.45;73.46;94753.41;5085054;28;20421;-74
2024/01/11 01:31:54;;;;;;;35.42;13.23;;;;;;;-5.41;72.98;94759.00;5085246;28;20360;-74
2024/01/11 01:34:19;;;;;;;35.80;13.63;;;;;;;-5.40;72.93;94755.44;5084919;28;20036;-74
2024/01/11 01:36:45;;;;;;;35.55;14.70;;;;;;;-5.40;72.87;94750.25;5084805;28;20272;-74
2024/01/11 01:39:11;;;;;;;41.40;13.93;;;;;;;-5.39;72.79;94746.63;5084735;28;20215;-74
2024/01/11 01:41:36;;;;;;;41.55;14.75;;;;;;;-5.41;72.63;94739.06;5084999;28;20343;-74
2024/01/11 01:44:02;;;;;;;42.50;13.40;;;;;;;-5.42;72.54;94737.44;5084996;28;20380;-74
2024/01/11 01:46:28;;;;;;;25.92;10.45;;;;;;;-5.46;72.77;94737.00;5085034;28;20083;-74
2024/01/11 01:48:56;;;;;;;36.20;12.30;;;;;;;-5.46;72.80;94733.63;5084875;28;20047;-74
2024/01/11 01:51:23;;;;;;;31.58;12.20;;;;;;;-5.42;72.89;94723.66;5084757;28;20323;-74
2024/01/11 01:53:52;;;;;;;32.92;12.15;;;;;;;-5.42;72.79;94714.03;5083387;28;20032;-74
2024/01/11 01:56:19;;;;;;;33.60;10.70;;;;;;;-5.53;72.80;94715.41;5084622;28;20024;-74
2024/01/11 01:58:45;;;;;;;32.38;12.50;;;;;;;-5.54;73.12;94713.78;5084514;28;20040;-73
2024/01/11 02:01:12;;;;;;;36.42;12.40;;;;;;;-5.49;72.79;94708.81;5084592;28;20020;-74
2024/01/11 02:03:38;;;;;;;33.50;11.55;;;;;;;-5.49;72.70;94705.44;5084174;28;20021;-74
2024/01/11 02:06:05;;;;;;;39.72;11.07;;;;;;;-5.49;72.95;94708.03;5084650;28;20340;-74
2024/01/11 02:08:31;;;;;;;32.38;11.18;;;;;;;-5.47;72.60;94703.44;5084286;28;20345;-73
2024/01/11 02:10:59;;;;;;;38.30;13.35;;;;;;;-5.47;72.56;94703.44;5082905;28;20045;-74
2024/01/11 02:13:24;;;;;;;45.55;12.77;;;;;;;-5.46;72.57;94708.44;5084399;28;20024;-74
2024/01/11 02:15:50;;;;;;;47.97;14.25;;;;;;;-5.49;72.66;94705.44;5084159;28;20323;-75
2024/01/11 02:18:15;;;;;;;60.10;14.70;;;;;;;-5.47;72.43;94704.25;5083950;28;20016;-74
2024/01/11 02:20:41;;;;;;;46.78;12.77;;;;;;;-5.45;72.25;94706.66;5084248;28;20192;-74
2024/01/11 02:23:11;;;;;;;50.28;12.40;;;;;;;-5.48;72.20;94705.22;5083890;28;20311;-74
2024/01/11 02:25:37;;;;;;;27.50;9.35;;;;;;;-5.47;72.40;94699.03;5083770;28;20048;-74
2024/01/11 02:28:03;;;;;;;27.48;10.80;;;;;;;-5.50;72.84;94696.03;5082876;28;20342;-74
2024/01/11 02:30:28;;;;;;;24.27;11.23;;;;;;;-5.49;72.56;94695.03;5083831;28;20345;-73
2024/01/11 02:32:54;;;;;;;36.63;13.85;;;;;;;-5.49;72.86;94698.44;5083813;28;20051;-74
2024/01/11 02:35:19;;;;;;;47.72;18.75;;;;;;;-5.54;73.63;94702.59;5083625;28;20048;-73
2024/01/11 02:37:46;;;;;;;46.33;18.80;;;;;;;-5.53;73.93;94699.81;5083586;28;20024;-73
2024/01/11 02:40:13;;;;;;;42.13;17.70;;;;;;;-5.53;74.37;94693.81;5083844;28;20035;-73
2024/01/11 02:42:39;;;;;;;29.92;13.90;;;;;;;-5.52;74.33;94700.63;5083619;28;20085;-73
2024/01/11 02:45:05;;;;;;;38.75;13.30;;;;;;;-5.51;74.10;94690.03;5083667;28;20016;-73
2024/01/11 02:47:30;;;;;;;31.13;11.35;;;;;;;-5.56;73.63;94687.19;5083313;28;20099;-73
2024/01/11 02:49:56;;;;;;;27.70;11.65;;;;;;;-5.55;73.21;94693.22;5083194;28;20017;-74
2024/01/11 02:52:23;;;;;;;32.70;11.90;;;;;;;-5.55;72.86;94688.03;5082938;28;20024;-73
2024/01/11 02:54:48;;;;;;;32.72;11.02;;;;;;;-5.57;72.85;94687.41;5083035;28;20024;-73
2024/01/11 02:57:14;;;;;;;31.25;11.60;;;;;;;-5.59;73.02;94684.22;5083058;28;20016;-73
2024/01/11 02:59:40;;;;;;;27.55;11.43;;;;;;;-5.62;72.66;94685.38;5083255;28;20024;-73
2024/01/11 03:02:05;;;;;;;32.90;11.18;;;;;;;-5.63;72.36;94688.19;5083058;28;20016;-73
2024/01/11 03:04:31;;;;;;;26.27;10.10;;;;;;;-5.66;72.52;94684.97;5082931;28;20026;-73
2024/01/11 03:06:56;;;;;;;27.05;10.52;;;;;;;-5.70;72.61;94678.56;5082780;28;20039;-73
2024/01/11 03:09:22;;;;;;;32.70;12.55;;;;;;;-5.71;72.50;94676.94;5082888;28;20028;-73
2024/01/11 03:11:47;;;;;;;32.03;11.80;;;;;;;-5.73;72.60;94683.34;5082793;28;20040;-73
2024/01/11 03:14:13;;;;;;;28.92;12.65;;;;;;;-5.74;72.64;94682.53;5082925;28;20384;-73
2024/01/11 03:16:39;;;;;;;27.52;10.30;;;;;;;-5.77;72.62;94682.13;5081981;28;20016;-74
2024/01/11 03:19:05;;;;;;;33.28;12.35;;;;;;;-5.81;72.99;94679.09;5082702;28;20017;-74
2024/01/11 03:21:31;;;;;;;23.92;11.38;;;;;;;-5.83;73.11;94678.47;5082745;28;20020;-74
2024/01/11 03:23:56;;;;;;;30.08;12.07;;;;;;;-5.85;73.35;94685.66;5082763;28;20074;-75
2024/01/11 03:26:22;;;;;;;40.08;15.05;;;;;;;-5.85;73.00;94676.06;5082699;28;20287;-75
2024/01/11 03:28:47;;;;;;;35.97;14.63;;;;;;;-5.88;72.90;94680.88;5082710;28;20372;-74
2024/01/11 03:31:13;;;;;;;43.22;16.40;;;;;;;-5.88;73.44;94681.66;5082926;28;20078;-74
2024/01/11 03:33:39;;;;;;;45.83;16.10;;;;;;;-5.90;73.18;94672.47;5082657;28;20204;-74
2024/01/11 03:36:11;;;;;;;36.38;14.48;;;;;;;-5.93;73.75;94678.81;5082531;28;20093;-73
2024/01/11 03:38:37;;;;;;;37.95;14.95;;;;;;;-5.95;73.84;94675.63;5082589;28;20092;-74
2024/01/11 03:41:08;;;;;;;34.53;14.90;;;;;;;-5.95;73.97;94670.44;5082628;28;20227;-74
2024/01/11 03:43:33;;;;;;;42.78;16.00;;;;;;;-5.97;74.10;94671.63;5082609;28;20300;-74
2024/01/11 03:45:59;;;;;;;40.63;14.13;;;;;;;-5.95;73.74;94680.81;5082394;28;20032;-74
2024/01/11 03:48:24;;;;;;;37.90;14.95;;;;;;;-5.96;73.67;94675.81;5081314;28;20086;-74
2024/01/11 03:50:50;;;;;;;36.25;15.50;;;;;;;-5.98;73.91;94681.22;5082426;28;20024;-74
2024/01/11 03:53:15;;;;;;;28.52;12.15;;;;;;;-5.96;73.86;94668.84;5082433;28;20093;-74
2024/01/11 03:55:40;;;;;;;32.17;14.60;;;;;;;-5.99;73.77;94668.44;5082596;28;20201;-74
2024/01/11 03:58:06;;;;;;;26.67;11.88;;;;;;;-5.97;73.64;94666.44;5082473;28;20055;-74
2024/01/11 04:00:33;;;;;;;28.67;12.55;;;;;;;-5.99;74.02;94663.25;5082302;28;20029;-74
2024/01/11 04:02:58;;;;;;;36.10;13.02;;;;;;;-5.99;73.66;94664.03;5082344;28;20238;-74
2024/01/11 04:05:24;;;;;;;28.10;12.88;;;;;;;-6.00;73.88;94667.63;5082321;28;20028;-74
2024/01/11 04:07:49;;;;;;;48.35;16.33;;;;;;;-5.99;74.00;94664.03;5082345;28;20254;-74
2024/01/11 04:10:17;;;;;;;43.33;17.00;;;;;;;-6.01;74.25;94660.81;5082197;28;20031;-74
2024/01/11 04:12:42;;;;;;;40.55;14.88;;;;;;;-6.02;74.67;94654.03;5082264;28;20151;-74
2024/01/11 04:15:13;;;;;;;34.08;14.18;;;;;;;-5.98;74.24;94655.28;5082266;28;20052;-74
2024/01/11 04:17:39;;;;;;;33.90;12.85;;;;;;;-6.01;74.38;94653.03;5082300;28;20103;-74
2024/01/11 04:20:06;;;;;;;32.42;12.05;;;;;;;-6.02;74.16;94646.25;5082194;28;20036;-74
2024/01/11 04:22:32;;;;;;;34.92;13.25;;;;;;;-6.00;73.38;94648.63;5082073;28;20028;-74
2024/01/11 04:24:57;;;;;;;38.47;14.23;;;;;;;-6.04;73.30;94643.06;5082002;28;20036;-74
2024/01/11 04:27:23;;;;;;;25.05;12.13;;;;;;;-6.05;73.23;94644.03;5083409;28;20051;-74
2024/01/11 04:29:48;;;;;;;30.45;12.73;;;;;;;-6.08;73.60;94641.84;5085778;28;20257;-74
2024/01/11 04:32:13;;;;;;;47.03;14.00;;;;;;;-6.09;73.33;94650.59;5085758;28;20096;-74
2024/01/11 04:34:39;;;;;;;35.30;12.98;;;;;;;-6.09;73.06;94648.00;5085731;28;20030;-74
2024/01/11 04:37:06;;;;;;;39.55;13.23;;;;;;;-6.09;73.09;94648.00;5085631;28;20024;-74
2024/01/11 04:39:31;;;;;;;31.85;12.38;;;;;;;-6.15;72.93;94651.34;5085534;28;20036;-74
2024/01/11 04:41:57;;;;;;;39.88;13.55;;;;;;;-6.16;73.17;94649.75;5085663;28;20044;-74
2024/01/11 04:44:22;;;;;;;28.42;11.77;;;;;;;-6.17;73.22;94645.56;5085497;28;20319;-74
2024/01/11 04:46:48;;;;;;;29.85;11.57;;;;;;;-6.16;73.33;94654.97;5085451;28;20050;-74
2024/01/11 04:49:13;;;;;;;34.25;13.63;;;;;;;-6.17;73.50;94651.53;5085481;28;20130;-74
2024/01/11 04:51:39;;;;;;;32.03;13.23;;;;;;;-6.17;73.64;94655.94;5085635;28;20027;-74
2024/01/11 04:54:04;;;;;;;32.10;12.85;;;;;;;-6.17;73.63;94655.94;5085237;28;20028;-74
2024/01/11 04:56:29;;;;;;;37.88;14.50;;;;;;;-6.18;73.23;94657.72;5085476;28;20036;-74
2024/01/11 04:58:55;;;;;;;41.92;16.45;;;;;;;-6.20;73.22;94653.72;5085341;28;20028;-74
2024/01/11 05:01:21;;;;;;;47.38;16.35;;;;;;;-6.22;72.93;94663.50;5085251;28;20047;-74
2024/01/11 05:03:49;;;;;;;44.08;17.40;;;;;;;-6.29;74.00;94653.88;5085425;28;20070;-74
2024/01/11 05:06:18;;;;;;;42.58;17.48;;;;;;;-6.32;74.70;94656.84;5085017;28;20024;-74
2024/01/11 05:08:47;;;;;;;43.13;17.33;;;;;;;-6.30;74.82;94657.44;5085183;28;20367;-74
2024/01/11 05:11:20;;;;;;;45.80;16.88;;;;;;;-6.33;75.04;94657.84;5083770;28;20044;-74
2024/01/11 05:13:47;;;;;;;39.42;16.08;;;;;;;-6.32;74.79;94653.44;5084935;28;20024;-74
2024/01/11 05:16:31;;;;;;;44.70;16.20;;;;;;;-6.38;74.48;94654.19;5085154;28;20025;-74
2024/01/11 05:18:58;;;;;;;38.22;15.32;;;;;;;-6.46;74.62;94648.16;5084981;28;20028;-74
2024/01/11 05:21:24;;;;;;;33.92;14.32;;;;;;;-6.50;75.09;94651.31;5085154;28;20026;-74
2024/01/11 05:23:50;;;;;;;37.72;14.55;;;;;;;-6.55;75.19;94638.13;5084740;28;20069;-74
2024/01/11 05:26:17;;;;;;;46.75;15.93;;;;;;;-6.58;75.49;94634.09;5084859;28;20024;-74
2024/01/11 05:28:42;;;;;;;49.53;17.42;;;;;;;-6.56;75.60;94633.91;5085053;28;20099;-74
2024/01/11 05:31:15;;;;;;;42.55;16.98;;;;;;;-6.53;75.60;94630.94;5083584;28;20218;-74
2024/01/11 05:33:41;;;;;;;52.60;18.58;;;;;;;-6.49;75.24;94632.19;5084919;28;20025;-74
2024/01/11 05:36:07;;;;;;;53.90;18.98;;;;;;;-6.45;75.40;94623.03;5084465;28;20028;-74
2024/01/11 05:38:32;;;;;;;47.60;18.33;;;;;;;-6.43;75.12;94631.44;5083734;28;20024;-74
2024/01/11 05:40:58;;;;;;;51.35;19.05;;;;;;;-6.41;75.32;94628.63;5084430;28;20096;-74
2024/01/11 05:43:23;;;;;;;51.72;18.23;;;;;;;-6.40;75.06;94628.44;5084297;28;20035;-74
2024/01/11 05:45:49;;;;;;;45.50;17.55;;;;;;;-6.43;75.30;94626.25;5084412;28;20057;-74
2024/01/11 05:48:16;;;;;;;38.17;16.00;;;;;;;-6.42;75.05;94627.81;5084375;28;20029;-74
2024/01/11 05:50:42;;;;;;;42.88;16.27;;;;;;;-6.38;74.96;94623.88;5083358;28;20094;-74
2024/01/11 05:53:07;;;;;;;46.10;16.77;;;;;;;-6.41;74.81;94624.25;5084173;28;20020;-74
2024/01/11 05:55:32;;;;;;;38.00;15.07;;;;;;;-6.38;74.59;94629.06;5084193;28;20051;-74
2024/01/11 05:57:58;;;;;;;38.72;16.40;;;;;;;-6.40;74.28;94615.47;5084062;28;20028;-74
2024/01/11 06:00:23;;;;;;;39.50;14.65;;;;;;;-6.43;74.46;94610.69;5083932;28;20056;-74
2024/01/11 06:02:49;;;;;;;40.53;15.27;;;;;;;-6.39;74.43;94609.31;5084142;28;20024;-74
2024/01/11 06:05:15;;;;;;;36.33;13.93;;;;;;;-6.35;74.19;94607.94;5084170;28;20025;-74
2024/01/11 06:07:40;;;;;;;34.47;14.93;;;;;;;-6.29;74.11;94606.34;5084406;28;20235;-74
2024/01/11 06:10:06;;;;;;;32.42;14.20;;;;;;;-6.29;74.13;94599.41;5083935;28;20050;-74
2024/01/11 06:12:32;;;;;;;49.50;15.50;;;;;;;-6.25;74.05;94612.75;5083421;28;20060;-74
2024/01/11 06:14:58;;;;;;;38.50;15.57;;;;;;;-6.24;73.79;94613.59;5083819;28;20032;-75
2024/01/11 06:17:24;;;;;;;42.67;15.35;;;;;;;-6.24;74.02;94608.41;5083794;28;20039;-75
2024/01/11 06:19:50;;;;;;;33.30;14.70;;;;;;;-6.24;74.34;94614.38;5083818;28;20017;-75
2024/01/11 06:22:15;;;;;;;35.90;15.63;;;;;;;-6.18;74.54;94620.59;5083698;28;20024;-75
2024/01/11 06:24:41;;;;;;;38.83;15.60;;;;;;;-6.19;75.04;94603.41;5083548;28;20027;-77
2024/01/11 06:27:06;;;;;;;37.38;15.52;;;;;;;-6.14;74.65;94601.88;5083957;28;20307;-75
2024/01/11 06:29:32;;;;;;;33.78;15.07;;;;;;;-6.12;74.68;94605.06;5083622;28;20036;-76
2024/01/11 06:31:57;;;;;;;38.05;15.60;;;;;;;-6.07;74.67;94604.47;5083590;28;20047;-76
2024/01/11 06:34:23;;;;;;;38.88;14.55;;;;;;;-6.03;74.34;94603.09;5083335;28;20315;-76
2024/01/11 06:36:48;;;;;;;43.00;15.70;;;;;;;-6.01;74.12;94603.72;5083469;28;20054;-75
2024/01/11 06:39:13;;;;;;;39.85;15.48;;;;;;;-5.94;73.89;94594.16;5083299;28;20028;-75
2024/01/11 06:41:39;;;;;;;46.20;15.30;;;;;;;-5.93;73.99;94595.75;5083319;28;20039;-74
2024/01/11 06:44:04;;;;;;;37.90;16.52;;;;;;;-5.92;73.97;94586.97;5083722;28;20036;-75
2024/01/11 06:46:30;;;;;;;30.10;14.75;;;;;;;-5.91;73.80;94588.56;5083326;28;20078;-75
2024/01/11 06:48:56;;;;;;;51.50;16.83;;;;;;;-5.81;73.55;94584.81;5083307;28;20074;-73
2024/01/11 06:51:22;;;;;;;41.78;16.20;;;;;;;-5.77;73.61;94580.84;5081353;28;20023;-73
2024/01/11 06:53:48;;;;;;;50.40;18.73;;;;;;;-5.74;73.65;94588.22;5081471;28;20021;-74
2024/01/11 06:56:15;;;;;;;59.55;21.77;;;;;;;-5.71;74.20;94577.47;5081362;28;20020;-74
2024/01/11 06:58:40;;;;;;;53.67;20.83;;;;;;;-5.64;74.27;94583.47;5081616;28;20029;-74
2024/01/11 07:01:06;;;;;;;49.03;19.52;;;;;;;-5.61;74.39;94583.09;5079889;28;20329;-75
2024/01/11 07:03:31;;;;;;;46.97;18.88;;;;;;;-5.51;73.81;94585.34;5080881;28;20024;-74
2024/01/11 07:05:56;;;;;;;46.28;18.52;;;;;;;-5.49;73.64;94591.91;5081399;28;20092;-74
2024/01/11 07:08:22;;;;;;;49.47;19.45;;;;;;;-5.52;73.72;94587.09;5081019;28;20044;-74
2024/01/11 07:10:47;;;;;;;46.15;18.45;;;;;;;-5.53;73.75;94585.50;5081152;28;20055;-74
2024/01/11 07:13:16;;;;;;;45.22;18.67;;;;;;;-5.59;73.51;94588.09;5082304;28;20027;-74
2024/01/11 07:15:41;;;;;;;46.83;18.77;;;;;;;-5.62;73.80;94586.66;5082586;28;20048;-74
2024/01/11 07:18:07;;;;;;;40.42;17.30;;;;;;;-5.57;74.39;94586.09;5081461;28;20028;-74
2024/01/11 07:20:33;;;;;;;48.63;19.95;;;;;;;-5.55;74.19;94591.91;5081044;28;20024;-74
2024/01/11 07:22:59;;;;;;;44.67;18.05;;;;;;;-5.55;74.18;94582.31;5080534;28;20281;-74
2024/01/11 07:25:25;;;;;;;46.17;18.38;;;;;;;-5.56;74.48;94588.50;5080278;28;20020;-74
2024/01/11 07:27:50;;;;;;;42.13;19.30;;;;;;;-5.45;74.34;94584.53;5082150;28;20062;-74
2024/01/11 07:30:16;;;;;;;50.03;20.70;;;;;;;-5.38;74.00;94576.75;5082130;28;20219;-74
2024/01/11 07:32:41;;;;;;;51.28;19.67;;;;;;;-5.32;73.89;94578.56;5082528;28;20090;-74
2024/01/11 07:35:07;;;;;;;48.08;19.05;;;;;;;-5.29;73.78;94571.19;5082532;28;20096;-73
2024/01/11 07:37:32;;;;;;;47.38;18.08;;;;;;;-5.23;73.93;94569.59;5082480;28;20029;-74
2024/01/11 07:39:58;;;;;;;48.42;20.75;;;;;;;-5.19;73.55;94576.00;5082407;28;20323;-74
2024/01/11 07:42:23;;;;;;;55.33;20.48;;;;;;;-5.16;73.73;94583.41;5082627;28;20032;-74
2024/01/11 07:44:48;;;;;;;54.80;19.85;;;;;;;-5.09;73.58;94575.59;5082359;28;20084;-74
2024/01/11 07:47:14;;;;;;;52.65;21.02;;;;;;;-5.08;73.49;94578.00;5082438;28;20024;-73
2024/01/11 07:49:39;;;;;;;48.20;21.27;;;;;;;-5.04;73.30;94575.81;5082522;28;20031;-74
2024/01/11 07:52:05;;;;;;;43.65;21.05;;;;;;;-4.94;72.76;94578.03;5081091;28;20108;-74
2024/01/11 07:54:31;;;;;;;50.97;21.02;;;;;;;-4.90;72.86;94574.03;5082070;28;20099;-74
2024/01/11 07:56:56;;;;;;;54.33;22.17;;;;;;;-4.82;72.86;94576.44;5082402;28;20036;-74
2024/01/11 07:59:22;;;;;;;56.08;22.25;;;;;;;-4.88;73.40;94572.84;5082210;28;20060;-74
2024/01/11 08:01:48;;;;;;;43.08;20.70;;;;;;;-4.75;73.24;94566.03;5082753;28;20024;-74
2024/01/11 08:04:14;;;;;;;46.28;22.30;;;;;;;-4.69;73.11;94566.03;5086412;28;20017;-74
2024/01/11 08:06:39;;;;;;;49.38;21.95;;;;;;;-4.56;73.16;94564.41;5085018;28;20264;-74
2024/01/11 08:09:05;;;;;;;53.00;22.17;;;;;;;-4.49;72.97;94560.00;5086069;28;20056;-74
2024/01/11 08:11:31;;;;;;;59.40;22.33;;;;;;;-4.41;72.71;94562.41;5086020;28;20044;-74
2024/01/11 08:13:57;;;;;;;51.47;21.85;;;;;;;-4.41;73.16;94567.59;5085651;28;20024;-74
2024/01/11 08:16:22;;;;;;;45.65;19.25;;;;;;;-4.30;73.00;94561.75;5086102;28;20024;-74
2024/01/11 08:18:48;;;;;;;54.13;21.83;;;;;;;-4.26;73.01;94556.97;5085856;28;20020;-73
2024/01/11 08:21:14;;;;;;;55.28;20.63;;;;;;;-4.14;73.15;94549.31;5085795;28;20044;-73
2024/01/11 08:23:44;;;;;;;58.55;20.90;;;;;;;-4.05;72.85;94550.69;5085789;28;20330;-74
2024/01/11 08:26:13;;;;;;;51.80;20.70;;;;;;;-3.94;72.81;94550.06;5085646;28;20089;-73
2024/01/11 08:28:39;;;;;;;55.90;20.55;;;;;;;-3.87;72.39;94547.44;5084377;28;20032;-73
2024/01/11 08:31:06;;;;;;;48.67;21.45;;;;;;;-3.74;72.11;94546.59;5085497;28;20337;-73
2024/01/11 08:33:31;;;;;;;49.17;19.95;;;;;;;-3.68;71.81;94548.38;5085534;28;20020;-74
2024/01/11 08:35:57;;;;;;;46.72;22.55;;;;;;;-3.64;71.94;94550.34;5085380;28;20035;-73
2024/01/11 08:38:24;;;;;;;52.30;20.90;;;;;;;-3.55;71.79;94550.09;5085431;28;20311;-73
2024/01/11 08:40:49;;;;;;;46.65;21.38;;;;;;;-3.62;71.76;94550.16;5085332;28;20027;-74
2024/01/11 08:43:15;;;;;;;59.67;22.40;;;;;;;-3.49;71.47;94552.66;5085347;28;20021;-73
2024/01/11 08:45:40;;;;;;;52.60;22.58;;;;;;;-3.44;70.43;94552.03;5085289;28;20020;-73
2024/01/11 08:48:06;;;;;;;54.78;24.05;;;;;;;-3.36;70.42;94553.59;5085292;28;20062;-74
2024/01/11 08:50:32;;;;;;;44.63;22.05;;;;;;;-3.27;70.60;94547.16;5085060;28;20327;-73
2024/01/11 08:52:58;;;;;;;49.95;22.15;;;;;;;-3.17;69.96;94549.31;5085022;28;20028;-73
2024/01/11 08:55:23;;;;;;;55.58;22.33;;;;;;;-3.09;67.72;94542.00;5085061;28;20303;-73
2024/01/11 08:57:49;;;;;;;51.20;22.38;;;;;;;-3.07;67.26;94536.59;5084856;28;20100;-73
2024/01/11 09:00:17;;;;;;;53.28;23.02;;;;;;;-3.10;67.39;94532.56;5085104;28;20111;-73
2024/01/11 09:02:46;;;;;;;52.72;23.42;;;;;;;-3.10;67.41;94537.78;5085177;28;20020;-73
2024/01/11 09:05:13;;;;;;;59.30;23.95;;;;;;;-3.17;67.37;94531.84;5085149;28;20042;-73
2024/01/11 09:07:38;;;;;;;48.00;21.02;;;;;;;-3.21;67.02;94528.06;5084704;28;20087;-74
2024/01/11 09:10:04;;;;;;;48.70;18.40;;;;;;;-3.24;66.69;94528.47;5085199;28;20024;-73
2024/01/11 09:12:30;;;;;;;45.53;19.30;;;;;;;-3.21;66.77;94522.84;5084662;28;20270;-74
2024/01/11 09:14:55;;;;;;;38.95;17.17;;;;;;;-3.15;65.81;94510.78;5083491;28;20020;-74
2024/01/11 09:17:21;;;;;;;35.97;16.58;;;;;;;-3.18;64.19;94511.97;5084316;28;20025;-74
2024/01/11 09:19:47;;;;;;;42.70;19.40;;;;;;;-3.34;65.75;94505.47;5082785;28;20029;-73
2024/01/11 09:22:12;;;;;;;50.90;19.73;;;;;;;-3.26;66.74;94517.44;5082972;28;20102;-74
2024/01/11 09:24:37;;;;;;;46.28;18.30;;;;;;;-3.24;66.81;94507.59;5083485;28;20013;-73
2024/01/11 09:27:04;;;;;;;52.40;19.70;;;;;;;-3.24;67.08;94505.81;5084209;28;20384;-74
2024/01/11 09:29:29;;;;;;;46.90;20.35;;;;;;;-3.11;67.08;94510.13;5083114;28;20024;-74
2024/01/11 09:31:55;;;;;;;52.30;21.05;;;;;;;-3.03;66.43;94507.25;5082717;28;20016;-73
2024/01/11 09:34:20;;;;;;;50.65;22.10;;;;;;;-3.02;66.62;94505.44;5083190;28;20020;-74
2024/01/11 09:36:45;;;;;;;52.63;21.55;;;;;;;-2.97;67.13;94496.97;5083992;28;20314;-74
2024/01/11 09:39:13;;;;;;;52.10;19.83;;;;;;;-2.88;66.65;94501.72;5084353;28;20016;-74
2024/01/11 09:41:45;;;;;;;52.63;22.20;;;;;;;-2.83;66.54;94490.63;5084483;28;20020;-73
2024/01/11 09:44:11;;;;;;;51.45;20.23;;;;;;;-2.87;66.99;94490.28;5083121;28;20017;-74
2024/01/11 09:46:36;;;;;;;57.35;23.20;;;;;;;-2.75;66.85;94485.16;5084015;28;20063;-74
2024/01/11 09:49:03;;;;;;;54.97;23.10;;;;;;;-2.73;67.10;94469.28;5083938;28;20069;-74
2024/01/11 09:51:29;;;;;;;57.00;23.35;;;;;;;-2.61;66.71;94457.13;5082758;28;20113;-74
2024/01/11 09:53:56;;;;;;;56.97;23.95;;;;;;;-2.55;65.99;94455.47;5083883;28;20028;-73
2024/01/11 09:56:23;;;;;;;65.03;23.65;;;;;;;-2.47;65.71;94453.34;5083955;28;20086;-74
2024/01/11 09:58:50;;;;;;;57.05;25.25;;;;;;;-2.40;65.99;94445.47;5083902;28;20032;-74
2024/01/11 10:01:16;;;;;;;47.45;22.45;;;;;;;-2.29;65.71;94438.72;5083690;28;20024;-74
2024/01/11 10:03:42;;;;;;;55.92;24.83;;;;;;;-2.21;65.66;94443.66;5083902;28;20047;-74
2024/01/11 10:06:09;;;;;;;53.30;25.33;;;;;;;-2.14;65.78;94433.91;5083536;28;20020;-74
2024/01/11 10:08:35;;;;;;;55.35;23.02;;;;;;;-2.00;65.90;94437.16;5083487;28;20334;-74
2024/01/11 10:11:01;;;;;;;61.30;24.60;;;;;;;-1.90;65.14;94426.97;5083379;28;20048;-75
2024/01/11 10:13:31;;;;;;;58.35;24.48;;;;;;;-1.78;64.03;94426.22;5083428;28;20219;-74
2024/01/11 10:16:07;;;;;;;52.47;23.75;;;;;;;-1.75;63.89;94417.94;5083765;28;20078;-76
2024/01/11 10:18:33;;;;;;;49.72;21.88;;;;;;;-1.68;61.82;94422.06;5083536;28;20017;-74
2024/01/11 10:20:58;;;;;;;46.85;20.52;;;;;;;-1.68;61.96;94414.22;5083296;28;20025;-74
2024/01/11 10:23:23;;;;;;;51.47;21.60;;;;;;;-1.64;61.51;94414.56;5083110;28;20087;-74
2024/01/11 10:25:49;;;;;;;50.30;22.85;;;;;;;-1.63;61.41;94405.69;5082850;28;20029;-74
2024/01/11 10:28:15;;;;;;;44.45;22.20;;;;;;;-1.69;61.72;94402.19;5083189;28;20033;-74
2024/01/11 10:30:41;;;;;;;47.70;22.05;;;;;;;-1.63;60.70;94400.47;5083409;28;20111;-74
2024/01/11 10:33:07;;;;;;;54.30;23.45;;;;;;;-1.66;60.47;94399.09;5082880;28;20036;-74
2024/01/11 10:35:35;;;;;;;50.15;23.25;;;;;;;-1.61;60.66;94390.59;5083252;28;20028;-74
2024/01/11 10:38:08;;;;;;;49.38;23.05;;;;;;;-1.48;62.41;94377.31;5083278;28;20211;-74
2024/01/11 10:40:34;;;;;;;50.10;20.67;;;;;;;-1.44;60.82;94381.09;5083304;28;20059;-74
2024/01/11 10:43:01;;;;;;;50.38;22.45;;;;;;;-1.40;61.50;94376.19;5083168;28;20063;-74
2024/01/11 10:45:28;;;;;;;62.55;24.35;;;;;;;-1.35;61.55;94372.91;5083284;28;20020;-74
2024/01/11 10:48:06;;;;;;;42.28;20.65;;;;;;;-1.28;60.30;94363.16;5083356;28;20192;-75
2024/01/11 10:50:35;;;;;;;46.42;21.40;;;;;;;-1.32;61.72;94362.78;5081674;28;20050;-74
2024/01/11 10:53:10;;;;;;;51.88;22.65;;;;;;;-1.32;61.92;94360.19;5083277;28;20028;-74
2024/01/11 10:55:37;;;;;;;46.03;22.50;;;;;;;-1.35;60.17;94365.06;5083001;28;20021;-74
2024/01/11 10:58:03;;;;;;;47.25;23.25;;;;;;;-1.30;61.15;94360.75;5083072;28;20023;-74
2024/01/11 11:00:30;;;;;;;49.53;22.73;;;;;;;-1.23;60.95;94358.81;5083105;28;20024;-74
2024/01/11 11:02:59;;;;;;;54.40;24.60;;;;;;;-1.16;61.04;94345.63;5081932;28;20050;-73
2024/01/11 11:05:26;;;;;;;54.72;24.63;;;;;;;-1.05;60.95;94344.81;5083144;28;20028;-74
2024/01/11 11:07:53;;;;;;;53.83;24.23;;;;;;;-1.00;59.50;94341.50;5083081;28;20027;-75
2024/01/11 11:10:21;;;;;;;51.00;23.83;;;;;;;-1.03;59.30;94328.91;5082994;28;20321;-75
2024/01/11 11:12:48;;;;;;;59.08;24.75;;;;;;;-0.93;58.97;94325.72;5082719;28;20077;-74